Flight Track Log - Related Links

Times and Time Zones

All times are in EDT time to prevent confusion due to time zone crossing. See the N425EM flight status page for this flight to view local times or setup timezone preferences in your user account.

Time Position Orientation Groundspeed Altitude Reporting Facility
EDT Latitude Longitude Course Direction KTS MPH feet Rate Location/Type
Tue 10:25:48 AM 34.0522 -85.9994 53° Northeast 149 171 4,800  Level Atlanta Center
Tue 10:26:45 AM 34.0800 -85.9550 53° Northeast 191 220 6,000 1,333 Climbing Atlanta Center
Tue 10:27:45 AM 34.1097 -85.9156 48° Northeast 167 192 7,400 1,450 Climbing Atlanta Center
Tue 10:28:45 AM 34.1417 -85.8761 46° Northeast 157 181 8,900 1,400 Climbing Atlanta Center
Tue 10:29:45 AM 34.1736 -85.8364 46° Northeast 157 181 10,200 1,400 Climbing Atlanta Center
Tue 10:30:45 AM 34.2075 -85.7969 44° Northeast 157 181 11,700 1,250 Climbing Atlanta Center
Tue 10:31:45 AM 34.2394 -85.7575 46° Northeast 171 197 12,700 1,150 Climbing Atlanta Center
Tue 10:32:45 AM 34.2756 -85.7156 44° Northeast 171 197 14,000 1,300 Climbing Atlanta Center
Tue 10:33:45 AM 34.3114 -85.6733 44° Northeast 171 197 15,300 1,250 Climbing Atlanta Center
Tue 10:34:45 AM 34.3456 -85.6289 47° Northeast 171 197 16,500 1,050 Climbing Atlanta Center
Tue 10:35:45 AM 34.3794 -85.5842 47° Northeast 178 205 17,400 750 Climbing Atlanta Center
Tue 10:36:45 AM 34.4175 -85.5369 46° Northeast 178 205 18,000 700 Climbing Atlanta Center
Tue 10:37:45 AM 34.4556 -85.4897 46° Northeast 183 211 18,800 850 Climbing Atlanta Center
Tue 10:38:45 AM 34.4958 -85.4400 45° Northeast 188 216 19,700 850 Climbing Atlanta Center
Tue 10:39:45 AM 34.5361 -85.3928 44° Northeast 193 222 20,500 650 Climbing Atlanta Center
Tue 10:40:45 AM 34.5722 -85.3431 49° Northeast 193 222 21,000 250 Climbing Atlanta Center
Tue 10:41:45 AM 34.6186 -85.2856 46° Northeast 206 237 21,000  Level Atlanta Center
Tue 10:42:45 AM 34.6650 -85.2308 44° Northeast 219 252 21,000  Level Atlanta Center
Tue 10:43:45 AM 34.7117 -85.1708 47° Northeast 230 265 21,000  Level Atlanta Center
Tue 10:44:45 AM 34.7600 -85.1133 44° Northeast 230 265 21,000  Level Atlanta Center
Tue 10:45:45 AM 34.8086 -85.0533 45° Northeast 235 270 21,000  Level Atlanta Center
Tue 10:46:45 AM 34.8550 -84.9931 47° Northeast 235 270 21,000  Level Atlanta Center
Tue 10:47:45 AM 34.9014 -84.9328 47° Northeast 235 270 21,000  Level Atlanta Center
Tue 10:48:45 AM 34.9478 -84.8725 47° Northeast 235 270 21,000  Level Atlanta Center
Tue 10:49:45 AM 34.9939 -84.8119 47° Northeast 235 270 21,000  Level Atlanta Center
Tue 10:50:45 AM 35.0403 -84.7517 47° Northeast 235 270 21,000  Level Atlanta Center
Tue 10:51:45 AM 35.0864 -84.6861 49° Northeast 240 276 21,000  Level Atlanta Center
Tue 10:52:45 AM 35.1328 -84.6256 47° Northeast 240 276 21,000  Level Atlanta Center
Tue 10:53:45 AM 35.1767 -84.5622 50° Northeast 240 276 21,000  Level Atlanta Center
Tue 10:54:45 AM 35.2231 -84.5014 47° Northeast 240 276 21,000  Level Atlanta Center
Tue 10:55:45 AM 35.2669 -84.4381 50° Northeast 240 276 21,000  Level Atlanta Center
Tue 10:56:45 AM 35.3131 -84.3772 47° Northeast 240 276 21,000  Level Atlanta Center
Tue 10:57:45 AM 35.3569 -84.3164 48° Northeast 240 276 21,000  Level Atlanta Center
Tue 10:58:45 AM 35.4031 -84.2553 47° Northeast 240 276 21,000  Level Atlanta Center
Tue 10:59:45 AM 35.4450 -84.1942 50° Northeast 240 276 21,000  Level Atlanta Center
Tue 11:00:45 AM 35.4908 -84.1331 47° Northeast 240 276 21,000  Level Atlanta Center
Tue 11:01:45 AM 35.5347 -84.0719 49° Northeast 240 276 21,000  Level Atlanta Center
Tue 11:02:45 AM 35.5764 -84.0106 50° Northeast 240 276 21,000  Level Atlanta Center
Tue 11:03:45 AM 35.6222 -83.9519 46° Northeast 240 276 21,000  Level Atlanta Center
Tue 11:04:45 AM 35.6661 -83.8906 49° Northeast 240 276 21,000  Level Atlanta Center
Tue 11:05:45 AM 35.7097 -83.8317 48° Northeast 240 276 21,000  Level Atlanta Center
Tue 11:06:45 AM 35.7533 -83.7675 50° Northeast 240 276 21,000  Level Atlanta Center
Tue 11:07:45 AM 35.7950 -83.7086 49° Northeast 235 270 21,000  Level Atlanta Center
Tue 11:08:45 AM 35.8408 -83.6469 47° Northeast 235 270 21,000  Level Atlanta Center
Tue 11:09:45 AM 35.8842 -83.5850 49° Northeast 235 270 21,000  Level Atlanta Center
Tue 11:10:45 AM 35.9278 -83.5233 49° Northeast 235 270 21,000  Level Atlanta Center
Tue 11:11:45 AM 35.9714 -83.4614 49° Northeast 235 270 21,000  Level Atlanta Center
Tue 11:12:45 AM 36.0211 -83.3917 49° Northeast 242 278 21,000  Level Atlanta Center
Tue 11:13:45 AM 36.0625 -83.3322 49° Northeast 237 273 21,000  Level Atlanta Center
Tue 11:14:45 AM 36.1017 -83.2756 49° Northeast 237 273 21,000  Level Atlanta Center
Tue 11:15:45 AM 36.1453 -83.2133 49° Northeast 237 273 21,000  Level Atlanta Center
Tue 11:16:45 AM 36.1886 -83.1536 48° Northeast 237 273 21,000  Level Atlanta Center
Tue 11:17:45 AM 36.2339 -83.0889 49° Northeast 237 273 21,000  Level Atlanta Center
Tue 11:18:45 AM 36.2772 -83.0267 49° Northeast 237 273 21,000  Level Atlanta Center
Tue 11:19:45 AM 36.3206 -82.9642 49° Northeast 237 273 21,000  Level Atlanta Center
Tue 11:20:45 AM 36.3639 -82.9017 49° Northeast 237 273 21,000  Level Atlanta Center
Tue 11:21:45 AM 36.4092 -82.8392 48° Northeast 237 273 21,000  Level Atlanta Center
Tue 11:22:45 AM 36.4522 -82.7767 49° Northeast 237 273 21,000  Level Atlanta Center
Tue 11:23:45 AM 36.4975 -82.7114 49° Northeast 237 273 21,000  Level Atlanta Center
Tue 11:24:45 AM 36.5406 -82.6486 50° Northeast 237 273 21,000  Level Atlanta Center
Tue 11:25:45 AM 36.5856 -82.5858 48° Northeast 237 273 21,000  Level Atlanta Center
Tue 11:26:45 AM 36.6286 -82.5228 50° Northeast 237 273 21,000  Level Atlanta Center
Tue 11:27:49 AM 36.6797 -82.4489 49° Northeast 242 278 21,000  Level Indianapolis Center
Tue 11:28:51 AM 36.7233 -82.3864 49° Northeast 241 277 21,000  Level Indianapolis Center
Tue 11:29:53 AM 36.7664 -82.3228 50° Northeast 240 276 21,000  Level Indianapolis Center
Tue 11:30:55 AM 36.8108 -82.2586 49° Northeast 244 281 21,000  Level Indianapolis Center
Tue 11:31:57 AM 36.8606 -82.1842 50° Northeast 238 274 21,000  Level Indianapolis Center
Tue 11:32:58 AM 36.9056 -82.1225 48° Northeast 239 275 21,000  Level Indianapolis Center
Tue 11:34:00 AM 36.9481 -82.0581 50° Northeast 241 277 21,000  Level Indianapolis Center
Tue 11:35:02 AM 36.9928 -81.9967 48° Northeast 239 275 21,000 -48 Level Indianapolis Center
Tue 11:36:04 AM 37.0336 -81.9317 52° Northeast 238 274 20,900  Descending Indianapolis Center
Tue 11:37:05 AM 37.0781 -81.8708 48° Northeast 235 270 21,000 49 Climbing Indianapolis Center
Tue 11:38:07 AM 37.1200 -81.8069 51° Northeast 236 272 21,000  Level Indianapolis Center
Tue 11:39:09 AM 37.1689 -81.7342 50° Northeast 233 268 21,000  Level Indianapolis Center
Tue 11:40:10 AM 37.2117 -81.6719 49° Northeast 234 269 21,000  Level Indianapolis Center
Tue 11:41:12 AM 37.2528 -81.6083 51° Northeast 234 269 21,000  Level Indianapolis Center
Tue 11:42:14 AM 37.2953 -81.5464 49° Northeast 234 269 21,000  Level Indianapolis Center
Tue 11:43:15 AM 37.3378 -81.4792 51° Northeast 227 261 21,000  Level Indianapolis Center
Tue 11:44:17 AM 37.3789 -81.4172 50° Northeast 233 268 21,000  Level Indianapolis Center
Tue 11:45:18 AM 37.4203 -81.3592 48° Northeast 229 264 21,000  Level Indianapolis Center
Tue 11:46:20 AM 37.4586 -81.2975 52° Northeast 229 264 21,000  Level Indianapolis Center
Tue 11:47:21 AM 37.5072 -81.2256 50° Northeast 229 264 21,000  Level Indianapolis Center
Tue 11:48:23 AM 37.5472 -81.1650 50° Northeast 231 266 21,000  Level Indianapolis Center
Tue 11:49:24 AM 37.5883 -81.1039 50° Northeast 233 268 21,000  Level Indianapolis Center
Tue 11:50:26 AM 37.6344 -81.0319 51° Northeast 228 262 21,000  Level Indianapolis Center
Tue 11:51:28 AM 37.6750 -80.9697 51° Northeast 232 267 21,000  Level Indianapolis Center
Tue 11:52:29 AM 37.7167 -80.9114 48° Northeast 230 265 21,000  Level Indianapolis Center
Tue 11:53:31 AM 37.7547 -80.8494 52° Northeast 230 265 21,000  Level Indianapolis Center
Tue 11:54:32 AM 37.8025 -80.7767 50° Northeast 230 265 21,000 -49 Level Indianapolis Center
Tue 11:55:34 AM 37.8403 -80.7211 49° Northeast 228 262 20,900  Descending Indianapolis Center
Tue 11:56:35 AM 37.8803 -80.6592 51° Northeast 228 262 21,000 49 Climbing Indianapolis Center
Tue 11:57:37 AM 37.9206 -80.5997 49° Northeast 225 259 21,000 -51 Level Indianapolis Center
Tue 11:58:32 AM 37.9586 -80.5406 51° Northeast 226 260 20,900  Descending Washington Center
Tue 11:59:33 AM 38.0044 -80.4858 43° Northeast 226 260 21,000 49 Climbing Washington Center
Tue 12:00:34 PM 38.0467 -80.4278 47° Northeast 226 260 21,000  Level Washington Center
Tue 12:01:32 PM 38.0928 -80.3675 46° Northeast 226 260 21,000 -50 Level Washington Center
Tue 12:02:33 PM 38.1433 -80.3047 44° Northeast 226 260 20,900  Descending Washington Center
Tue 12:03:33 PM 38.1872 -80.2442 47° Northeast 226 260 21,000 50 Climbing Washington Center
Tue 12:04:34 PM 38.2333 -80.1861 45° Northeast 226 260 21,000  Level Washington Center
Tue 12:05:32 PM 38.2794 -80.1281 45° Northeast 226 260 21,000  Level Washington Center
Tue 12:06:32 PM 38.3211 -80.0750 45° Northeast 232 267 21,000  Level Washington Center
Tue 12:07:33 PM 38.3669 -80.0142 46° Northeast 237 273 21,000  Level Washington Center
Tue 12:08:33 PM 38.4131 -79.9533 46° Northeast 237 273 21,000  Level Washington Center
Tue 12:09:33 PM 38.4569 -79.8922 47° Northeast 237 273 21,000  Level Washington Center
Tue 12:10:34 PM 38.5094 -79.8264 44° Northeast 237 273 21,000  Level Washington Center
Tue 12:11:32 PM 38.5553 -79.7653 46° Northeast 237 273 21,000 -51 Level Washington Center
Tue 12:12:32 PM 38.6033 -79.7042 45° Northeast 237 273 20,900  Descending Washington Center
Tue 12:13:33 PM 38.6492 -79.6403 47° Northeast 237 273 21,000 49 Climbing Washington Center
Tue 12:14:34 PM 38.6908 -79.5842 46° Northeast 237 273 21,000 -50 Level Washington Center
Tue 12:15:32 PM 38.7367 -79.5228 46° Northeast 237 273 20,900 -203 Descending Washington Center
Tue 12:16:32 PM 38.7892 -79.4456 49° Northeast 246 283 20,600 -595 Descending Washington Center
Tue 12:17:33 PM 38.8394 -79.3736 48° Northeast 258 297 19,700 -885 Descending Washington Center
Tue 12:18:34 PM 38.8936 -79.3069 44° Northeast 258 297 18,800 -793 Descending Washington Center
Tue 12:19:34 PM 38.9436 -79.2375 47° Northeast 258 297 18,100 -763 Descending Washington Center
Tue 12:20:32 PM 38.9958 -79.1681 46° Northeast 258 297 17,300 -908 Descending Washington Center
Tue 12:21:33 PM 39.0436 -79.1036 46° Northeast 258 297 16,300 -639 Descending Washington Center
Tue 12:22:34 PM 39.0869 -79.0414 48° Northeast 253 291 16,000 -148 Descending Washington Center
Tue 12:23:35 PM 39.1303 -78.9819 47° Northeast 232 267 16,000  Level Washington Center
Tue 12:24:32 PM 39.1736 -78.9222 47° Northeast 227 261 16,000  Level Washington Center
Tue 12:25:33 PM 39.2150 -78.8653 47° Northeast 221 254 16,000 -197 Level Washington Center
Tue 12:26:34 PM 39.2581 -78.8083 46° Northeast 216 249 15,600 -756 Descending Washington Center
Tue 12:27:32 PM 39.3036 -78.7406 49° Northeast 228 262 14,500 -1,059 Descending Washington Center
Tue 12:28:33 PM 39.3533 -78.6783 44° Northeast 235 270 13,500 -992 Descending Washington Center
Tue 12:29:33 PM 39.3986 -78.6131 48° Northeast 236 272 12,500 -942 Descending Washington Center
Tue 12:30:34 PM 39.4461 -78.5478 47° Northeast 236 272 11,600 -1,008 Descending Washington Center
Tue 12:31:32 PM 39.4894 -78.4850 48° Northeast 236 272 10,500 -1,068 Descending Washington Center
Tue 12:32:32 PM 39.5222 -78.4136 59° Northeast 231 266 9,500 -1,041 Descending Washington Center
Tue 12:33:33 PM 39.5428 -78.3336 72° East 231 266 8,400 -1,091 Descending Washington Center
Tue 12:34:33 PM 39.5656 -78.2567 69° East 231 266 7,300 -942 Descending Washington Center
Tue 12:35:34 PM 39.5817 -78.1872 73° East 225 259 6,500 -655 Descending Washington Center
Tue 12:36:32 PM 39.6039 -78.1125 69° East 220 253 6,000 -756 Descending Washington Center
Tue 12:37:33 PM 39.6244 -78.0325 72° East 225 259 5,000 -942 Descending Washington Center
Tue 12:38:33 PM 39.6467 -77.9550 70° East 225 259 4,100 -550 Descending Washington Center
Tue 12:39:33 PM 39.6647 -77.8908 70° East 212 244 3,900 -545 Descending Washington Center
Tue 12:40:34 PM 39.6742 -77.8239 80° East 197 227 3,000 -738 Descending Washington Center
Tue 12:41:35 PM 39.6733 -77.7564 91° East 187 215 2,400 -559 Descending Washington Center
Tue 12:42:32 PM 39.6744 -77.6997 89° East 169 194 1,900 -407 Descending Washington Center
Tue 12:43:33 PM 39.6981 -77.6600 52° Northeast 169 194 1,600 -443 Descending Washington Center
Tue 12:44:34 PM 39.7164 -77.6903 308° West 103 119 1,000 -590 Descending Washington Center

Login

Don't have an account? Register now (free) for customized features, flight alerts, and more!